Holman, Minnesota
Current Conditions -  °F | °C
As of 2:15 PM on Thursday 30 Oct 2014 (Local Time) from KGPZ Reporting Station
Overcast Overcast  
Wind Chill: 29°   Ceiling: 2700
Heat Index: 37°   Visibility: 10mi
Dew Point: 32°   Wind: 14mph
Humidity: 81%   Direction: 320°NW
Pressure: 30.13"   Gusts: 22mph
Location:  47.3121°N, 93.3823°W
Report Text: KGPZ 301915Z AUTO 32012G19KT 10SM SCT021 BKN027 OVC035 03/00 A3013 RMK AO1
Loading
Personal Weather Stations






























Interactive Weather Map
Tropical Storm Tracking
New forecast layout! Learn more

10-Day Weather Forecast

Advertisements
Track Severe Weather on mobile